Historyczne dane pomiarowe

Dodano dane terminowe – wersja testowa.

Dane z okresu 1951-2019

Wersja bazy: 1.34 [2019-03-16, lista zmian], aktualizacja planowana na 2019-04-15

Dane meteo z obszaru Polski uzyskane na podstawie danych udostępnionych przez Instytut Meteorologii i Gospodarki Wodnej – Państwowy Instytut Badawczy.

 

Wybierz Datę:    

       

TemperaturaWilgotnośćWiatrCiśnienieOpadyŚniegCzas trwania zjawisk
 Stacja t tx tn tng RH VA  wxwx mslp ppp RRR   cm mm wxwxwxwxwxwxwx
1961-08-14 11.3 19.1 5.4--- 5.3 0.7---- 0.0------------
1961-08-13 11.8 15.4 10.8--- 8.0 2.0---- 16.1------------
1961-08-12 17.8 24.9 13.2--- 6.7 2.0---- 21.2------------
1961-08-11 22.8 32.2 15.4--- 0.0 1.3---- 0.0------------
1961-08-10 23.2 32.0 15.4--- 1.3 0.7---- 0.0------------
1961-08-09 21.1 28.8 14.0--- 4.0 0.0---- 16.6------------
1961-08-08 19.8 24.5 16.9--- 4.0 1.3---- 0.0------------
1961-08-07 21.9 29.6 13.6--- 2.7 0.7---- 0.0------------
1961-08-06 20.7 29.0 11.5--- 0.0 1.0---- 0.0------------
1961-08-05 17.9 23.1 13.6--- 4.7 1.0---- 0.0------------
1961-08-04 14.8 20.2 9.0--- 4.0 0.3---- 0.0------------
1961-08-03 16.6 21.1 10.5--- 8.0 1.0---- 0.5------------
1961-08-02 18.1 25.4 7.8--- 1.3 0.7---- 0.0------------
1961-08-01 14.7 20.6 9.0--- 3.7 3.0---- 0.0------------
1961-07-31 11.6 15.2 9.6--- 8.0 1.3---- 6.1------------
1961-07-30 10.4 11.5 9.8--- 8.0 1.7---- 24.2------------
1961-07-29 12.3 18.3 10.9--- 8.0 0.0---- 34.2------------
1961-07-28 19.5 25.9 14.7--- 7.0 1.7---- 21.3------------
1961-07-27 19.7 25.4 9.8--- 4.0 3.0---- 0.4------------
1961-07-26 14.6 22.3 4.5--- 0.7 0.3---- 0.0------------
1961-07-25 11.9 16.1 4.5--- 6.3 0.7---- 0.0------------
1961-07-24 13.4 17.4 11.7--- 8.0 1.7---- 0.0------------
1961-07-23 15.2 19.6 9.6--- 7.7 0.3---- 0.0------------
1961-07-22 12.8 17.5 10.1--- 8.0 0.0---- 0.7------------
1961-07-21 14.1 18.9 8.0--- 8.0 2.0---- 0.0------------
1961-07-20 12.8 15.7 8.0--- 8.0 0.0---- 11.3------------
1961-07-19 13.1 19.7 7.8--- 7.3 1.3---- 10.4------------
1961-07-18 15.1 19.8 6.2--- 5.7 2.0---- 0.0------------
1961-07-17 15.2 22.0 11.7--- 2.7 1.7---- 0.0------------
1961-07-16 16.2 21.1 13.8--- 4.0 2.3---- 0.8------------
1961-07-15 18.3 23.5 8.7--- 4.3 0.3---- 7.4------------
1961-07-14 13.3 18.7 10.5--- 4.0 4.0---- 0.0------------
1961-07-13 18.7 28.1 10.3--- 4.0 1.3---- 8.8------------
1961-07-12 18.8 26.8 10.3--- 3.0 1.7---- 0.0------------
1961-07-11 14.3 20.5 9.5--- 3.7 0.7---- 0.0------------
1961-07-10 13.4 18.1 10.3--- 6.7 0.7---- 3.2------------
1961-07-09 15.7 21.5 6.3--- 6.0 1.7---- 2.4------------
1961-07-08 13.1 20.1 5.2--- 5.7 0.3---- 0.0------------
1961-07-07 12.5 17.3 7.7--- 8.0 1.3---- 0.0------------
1961-07-06 12.0 16.9 5.2--- 4.7 0.7---- 0.1------------
1961-07-05 12.2 18.7 9.8--- 5.7 1.7---- 0.0------------
1961-07-04 21.2 29.1 13.9--- 5.0 1.7---- 7.1------------
1961-07-03 20.2 30.0 8.3--- 1.3 0.7---- 0.0------------
1961-07-02 18.8 26.6 7.7--- 0.0 1.0---- 0.0------------
1961-07-01 17.2 25.4 7.9--- 0.0 0.3---- 0.0------------
1961-06-30 15.7 22.3 8.6 5.3-- 3.7 0.7---- 0.0------------
1961-06-29 13.9 19.4 4.9 2.0-- 4.0 0.3---- 0.0------------
1961-06-28 13.3 19.5 10.6 13.4-- 7.0 1.3---- 3.8------------
1961-06-27 21.8 31.2 12.0 8.6-- 3.0 1.0---- 10.7------------
1961-06-26 21.6 29.8 13.0 9.6-- 4.7 2.7---- 0.0------------
1961-06-25 20.5 28.3 9.6 5.8-- 2.0 1.0---- 0.0------------
1961-06-24 18.1 24.9 9.0 5.3-- 2.3 0.7---- 0.0------------
1961-06-23 16.5 22.0 14.2 9.5-- 5.3 1.7---- 0.0------------
1961-06-22 18.1 26.3 7.1 3.5-- 4.0 0.3---- 6.6------------
1961-06-21 15.7 22.9 3.9 1.2-- 1.7 0.3---- 0.0------------
1961-06-20 14.3 19.9 11.2 9.7-- 3.3 1.7---- 0.0------------
1961-06-19 20.0 26.8 12.2 9.1-- 4.7 0.3---- 0.0------------
1961-06-18 18.7 24.7 6.5 3.6-- 2.0 0.7---- 0.0------------
1961-06-17 14.6 21.5 4.1 2.0-- 1.0 0.7---- 0.0------------
1961-06-16 12.2 18.9 8.4 5.5-- 2.0 0.3---- 0.0------------
333.4 ms

 

Źródłem pochodzenia danych jest Instytut Meteorologii i Gospodarki Wodnej – Państwowy Instytut Badawczy. Dane Instytutu Meteorologii i Gospodarki Wodnej – Państwowego Instytutu Badawczego zostały przetworzone.

Dane źródłowe można odnaleźć na stronie https://dane.imgw.pl